Terminal Aerodrome Forecast
Issued by NWS

Home | Current Version | Previous Version | Text Only | Print | Product List | Glossary On
Versions: 1 2 3 4 5 6 7 8 9 10 11 12
257
FTUS44 KLIX 231425 AAA
TAFMSY
TAF AMD
KMSY 231425Z 2314/2412 29010KT P6SM BKN015 BKN025
     FM231600 34011G24KT P6SM BKN020
     FM231900 33011G24KT P6SM SCT035
     FM240200 35013G24KT P6SM FEW140
     FM240600 34008KT P6SM FEW250=

USA.gov is the U.S. government's official web portal to all federal, state and local government web resources and services.